sensor_id;sensor_type;location;lat;lon;timestamp;pressure;altitude;pressure_sealevel;temperature;humidity
20027;BME280;10174;42.688;23.344;2023-03-13T00:01:55;95542.66;;;1.01;59.59
20027;BME280;10174;42.688;23.344;2023-03-13T00:04:20;95543.66;;;1.00;59.40
20027;BME280;10174;42.688;23.344;2023-03-13T00:06:45;95551.44;;;1.08;59.59
20027;BME280;10174;42.688;23.344;2023-03-13T00:09:13;95557.97;;;1.12;59.47
20027;BME280;10174;42.688;23.344;2023-03-13T00:11:38;95541.63;;;1.02;59.21
20027;BME280;10174;42.688;23.344;2023-03-13T00:14:05;95528.13;;;0.83;59.06
20027;BME280;10174;42.688;23.344;2023-03-13T00:16:31;95573.06;;;1.18;59.36
20027;BME280;10174;42.688;23.344;2023-03-13T00:18:59;95562.88;;;1.15;59.14
20027;BME280;10174;42.688;23.344;2023-03-13T00:21:26;95580.41;;;1.23;60.30
20027;BME280;10174;42.688;23.344;2023-03-13T00:23:52;95573.72;;;1.27;60.00
20027;BME280;10174;42.688;23.344;2023-03-13T00:26:20;95574.47;;;1.14;59.03
20027;BME280;10174;42.688;23.344;2023-03-13T00:28:47;95574.25;;;1.09;58.90
20027;BME280;10174;42.688;23.344;2023-03-13T00:31:18;95568.06;;;0.95;59.79
20027;BME280;10174;42.688;23.344;2023-03-13T00:33:45;95487.50;;;0.49;59.36
20027;BME280;10174;42.688;23.344;2023-03-13T00:36:17;95571.00;;;1.07;59.71
20027;BME280;10174;42.688;23.344;2023-03-13T00:38:43;95576.69;;;1.11;59.53
20027;BME280;10174;42.688;23.344;2023-03-13T00:41:11;95588.91;;;1.12;59.93
20027;BME280;10174;42.688;23.344;2023-03-13T00:43:39;95551.53;;;0.86;60.08
20027;BME280;10174;42.688;23.344;2023-03-13T00:46:07;95569.44;;;0.84;59.67
20027;BME280;10174;42.688;23.344;2023-03-13T00:48:33;95574.16;;;0.89;59.46
20027;BME280;10174;42.688;23.344;2023-03-13T00:50:59;95579.66;;;0.94;59.59
20027;BME280;10174;42.688;23.344;2023-03-13T00:53:25;95556.16;;;0.78;59.30
20027;BME280;10174;42.688;23.344;2023-03-13T00:58:21;95577.00;;;0.87;60.16
20027;BME280;10174;42.688;23.344;2023-03-13T01:00:47;95577.41;;;0.91;59.40
20027;BME280;10174;42.688;23.344;2023-03-13T01:03:12;95577.59;;;0.89;59.81
20027;BME280;10174;42.688;23.344;2023-03-13T01:05:38;95579.06;;;0.99;60.27
20027;BME280;10174;42.688;23.344;2023-03-13T01:08:03;95552.09;;;0.75;60.20
20027;BME280;10174;42.688;23.344;2023-03-13T01:10:29;95574.66;;;0.71;60.51
20027;BME280;10174;42.688;23.344;2023-03-13T01:12:54;95490.34;;;0.20;61.39
20027;BME280;10174;42.688;23.344;2023-03-13T01:15:19;95566.34;;;0.74;60.52
20027;BME280;10174;42.688;23.344;2023-03-13T01:17:45;95579.34;;;0.69;60.02
20027;BME280;10174;42.688;23.344;2023-03-13T01:20:11;95577.69;;;0.68;59.81
20027;BME280;10174;42.688;23.344;2023-03-13T01:22:36;95562.38;;;0.57;61.66
20027;BME280;10174;42.688;23.344;2023-03-13T01:25:02;95572.00;;;0.64;61.12
20027;BME280;10174;42.688;23.344;2023-03-13T01:27:28;95552.81;;;0.56;61.46
20027;BME280;10174;42.688;23.344;2023-03-13T01:29:54;95572.41;;;0.68;60.79
20027;BME280;10174;42.688;23.344;2023-03-13T01:32:20;95577.31;;;0.71;61.15
20027;BME280;10174;42.688;23.344;2023-03-13T01:34:45;95579.75;;;0.73;61.60
20027;BME280;10174;42.688;23.344;2023-03-13T01:37:10;95588.31;;;0.75;61.27
20027;BME280;10174;42.688;23.344;2023-03-13T01:39:36;95594.09;;;0.92;60.26
20027;BME280;10174;42.688;23.344;2023-03-13T01:42:03;95574.81;;;0.63;60.29
20027;BME280;10174;42.688;23.344;2023-03-13T01:44:28;95598.50;;;0.78;60.03
20027;BME280;10174;42.688;23.344;2023-03-13T01:46:54;95586.03;;;0.65;60.85
20027;BME280;10174;42.688;23.344;2023-03-13T01:49:26;95599.34;;;0.78;60.99
20027;BME280;10174;42.688;23.344;2023-03-13T01:52:05;95605.41;;;0.72;60.80
20027;BME280;10174;42.688;23.344;2023-03-13T01:57:23;95599.63;;;0.62;61.63
20027;BME280;10174;42.688;23.344;2023-03-13T02:02:22;95583.72;;;0.55;61.46
20027;BME280;10174;42.688;23.344;2023-03-13T02:04:51;95578.16;;;0.43;62.10
20027;BME280;10174;42.688;23.344;2023-03-13T02:07:23;95598.75;;;0.55;62.31
20027;BME280;10174;42.688;23.344;2023-03-13T02:09:53;95484.91;;;-0.07;61.36
20027;BME280;10174;42.688;23.344;2023-03-13T02:12:29;95595.50;;;0.52;61.61
20027;BME280;10174;42.688;23.344;2023-03-13T02:14:57;95612.91;;;0.40;62.50
20027;BME280;10174;42.688;23.344;2023-03-13T02:17:24;95597.94;;;0.26;62.85
20027;BME280;10174;42.688;23.344;2023-03-13T02:19:51;95592.28;;;0.07;63.44
20027;BME280;10174;42.688;23.344;2023-03-13T02:22:48;95614.94;;;0.16;64.27
20027;BME280;10174;42.688;23.344;2023-03-13T02:27:57;95611.16;;;0.04;64.87
20027;BME280;10174;42.688;23.344;2023-03-13T02:30:24;95622.13;;;0.01;64.89
20027;BME280;10174;42.688;23.344;2023-03-13T02:32:50;95605.53;;;-0.14;64.88
20027;BME280;10174;42.688;23.344;2023-03-13T02:35:18;95632.44;;;-0.04;65.18
20027;BME280;10174;42.688;23.344;2023-03-13T02:37:47;95619.09;;;-0.17;65.91
20027;BME280;10174;42.688;23.344;2023-03-13T02:40:17;95640.47;;;-0.12;65.53
20027;BME280;10174;42.688;23.344;2023-03-13T02:42:46;95659.91;;;-0.20;66.27
20027;BME280;10174;42.688;23.344;2023-03-13T02:45:15;95652.47;;;-0.31;66.21
20027;BME280;10174;42.688;23.344;2023-03-13T02:47:41;95669.06;;;-0.38;66.58
20027;BME280;10174;42.688;23.344;2023-03-13T02:50:06;95651.53;;;-0.45;67.22
20027;BME280;10174;42.688;23.344;2023-03-13T02:53:06;95675.00;;;-0.50;69.16
20027;BME280;10174;42.688;23.344;2023-03-13T02:55:38;95637.81;;;-0.70;71.16
20027;BME280;10174;42.688;23.344;2023-03-13T02:58:05;95661.84;;;-0.65;71.88
20027;BME280;10174;42.688;23.344;2023-03-13T03:00:30;95650.69;;;-0.82;71.34
20027;BME280;10174;42.688;23.344;2023-03-13T03:02:55;95650.69;;;-0.82;71.14
20027;BME280;10174;42.688;23.344;2023-03-13T03:05:21;95671.19;;;-0.63;72.32
20027;BME280;10174;42.688;23.344;2023-03-13T03:07:48;95640.91;;;-0.67;72.12
20027;BME280;10174;42.688;23.344;2023-03-13T03:10:14;95663.56;;;-0.58;71.86
20027;BME280;10174;42.688;23.344;2023-03-13T03:12:40;95648.22;;;-0.84;70.90
20027;BME280;10174;42.688;23.344;2023-03-13T03:15:05;95664.50;;;-0.80;71.10
20027;BME280;10174;42.688;23.344;2023-03-13T03:17:31;95661.59;;;-0.85;71.21
20027;BME280;10174;42.688;23.344;2023-03-13T03:19:56;95686.88;;;-0.76;71.75
20027;BME280;10174;42.688;23.344;2023-03-13T03:22:22;95677.13;;;-0.91;71.29
20027;BME280;10174;42.688;23.344;2023-03-13T03:24:47;95710.06;;;-0.86;71.50
20027;BME280;10174;42.688;23.344;2023-03-13T03:27:13;95696.13;;;-1.10;71.90
20027;BME280;10174;42.688;23.344;2023-03-13T03:29:38;95689.47;;;-1.21;72.00
20027;BME280;10174;42.688;23.344;2023-03-13T03:32:04;95708.41;;;-1.02;72.39
20027;BME280;10174;42.688;23.344;2023-03-13T03:34:29;95698.16;;;-0.97;73.02
20027;BME280;10174;42.688;23.344;2023-03-13T03:36:55;95675.75;;;-1.16;72.50
20027;BME280;10174;42.688;23.344;2023-03-13T03:39:20;95692.59;;;-1.02;71.96
20027;BME280;10174;42.688;23.344;2023-03-13T03:41:45;95707.19;;;-0.92;72.10
20027;BME280;10174;42.688;23.344;2023-03-13T03:44:11;95720.00;;;-0.88;72.07
20027;BME280;10174;42.688;23.344;2023-03-13T03:46:36;95729.63;;;-0.96;72.98
20027;BME280;10174;42.688;23.344;2023-03-13T03:49:02;95743.44;;;-0.94;73.31
20027;BME280;10174;42.688;23.344;2023-03-13T03:51:27;95727.06;;;-1.04;73.32
20027;BME280;10174;42.688;23.344;2023-03-13T03:53:52;95711.50;;;-1.14;72.54
20027;BME280;10174;42.688;23.344;2023-03-13T03:56:18;95725.34;;;-0.97;72.59
20027;BME280;10174;42.688;23.344;2023-03-13T03:58:44;95737.09;;;-0.84;72.09
20027;BME280;10174;42.688;23.344;2023-03-13T04:01:09;95751.31;;;-0.85;72.23
20027;BME280;10174;42.688;23.344;2023-03-13T04:03:35;95633.78;;;-1.71;72.90
20027;BME280;10174;42.688;23.344;2023-03-13T04:06:00;95756.81;;;-0.95;72.73
20027;BME280;10174;42.688;23.344;2023-03-13T04:08:25;95749.00;;;-1.03;73.06
20027;BME280;10174;42.688;23.344;2023-03-13T04:10:51;95748.88;;;-1.10;73.55
20027;BME280;10174;42.688;23.344;2023-03-13T04:13:16;95767.28;;;-1.02;73.32
20027;BME280;10174;42.688;23.344;2023-03-13T04:15:42;95771.63;;;-1.09;73.31
20027;BME280;10174;42.688;23.344;2023-03-13T04:18:07;95773.06;;;-1.21;73.23
20027;BME280;10174;42.688;23.344;2023-03-13T04:20:33;95775.28;;;-1.33;74.49
20027;BME280;10174;42.688;23.344;2023-03-13T04:22:59;95782.09;;;-1.39;74.96
20027;BME280;10174;42.688;23.344;2023-03-13T04:25:24;95793.28;;;-1.37;75.29
20027;BME280;10174;42.688;23.344;2023-03-13T04:27:50;95655.28;;;-2.05;75.68
20027;BME280;10174;42.688;23.344;2023-03-13T04:30:15;95785.13;;;-1.27;75.01
20027;BME280;10174;42.688;23.344;2023-03-13T04:32:41;95773.66;;;-1.34;74.46
20027;BME280;10174;42.688;23.344;2023-03-13T04:35:06;95759.38;;;-1.40;74.41
20027;BME280;10174;42.688;23.344;2023-03-13T04:37:32;95792.50;;;-1.22;74.39
20027;BME280;10174;42.688;23.344;2023-03-13T04:39:57;95752.94;;;-1.61;74.56
20027;BME280;10174;42.688;23.344;2023-03-13T04:42:23;95815.59;;;-1.24;74.63
20027;BME280;10174;42.688;23.344;2023-03-13T04:44:48;95819.22;;;-1.26;74.52
20027;BME280;10174;42.688;23.344;2023-03-13T04:47:14;95806.66;;;-1.38;74.70
20027;BME280;10174;42.688;23.344;2023-03-13T04:49:39;95818.19;;;-1.39;74.97
20027;BME280;10174;42.688;23.344;2023-03-13T04:52:05;95815.09;;;-1.43;75.01
20027;BME280;10174;42.688;23.344;2023-03-13T04:54:30;95790.75;;;-1.53;75.07
20027;BME280;10174;42.688;23.344;2023-03-13T04:56:55;95786.78;;;-1.49;75.05
20027;BME280;10174;42.688;23.344;2023-03-13T04:59:21;95799.03;;;-1.33;74.18
20027;BME280;10174;42.688;23.344;2023-03-13T05:01:46;95785.31;;;-1.52;75.02
20027;BME280;10174;42.688;23.344;2023-03-13T05:04:12;95829.78;;;-1.26;74.98
20027;BME280;10174;42.688;23.344;2023-03-13T05:06:37;95811.38;;;-1.34;75.11
20027;BME280;10174;42.688;23.344;2023-03-13T05:09:03;95716.22;;;-1.85;74.81
20027;BME280;10174;42.688;23.344;2023-03-13T05:11:29;95807.63;;;-1.16;74.17
20027;BME280;10174;42.688;23.344;2023-03-13T05:13:54;95821.66;;;-1.01;73.84
20027;BME280;10174;42.688;23.344;2023-03-13T05:16:20;95826.31;;;-1.03;74.44
20027;BME280;10174;42.688;23.344;2023-03-13T05:18:46;95816.47;;;-1.09;74.61
20027;BME280;10174;42.688;23.344;2023-03-13T05:21:11;95810.47;;;-1.03;74.48
20027;BME280;10174;42.688;23.344;2023-03-13T05:23:36;95841.81;;;-0.85;74.33
20027;BME280;10174;42.688;23.344;2023-03-13T05:26:02;95826.13;;;-1.01;74.32
20027;BME280;10174;42.688;23.344;2023-03-13T05:28:27;95854.13;;;-0.77;74.37
20027;BME280;10174;42.688;23.344;2023-03-13T05:30:53;95849.19;;;-0.80;74.71
20027;BME280;10174;42.688;23.344;2023-03-13T05:33:18;95820.13;;;-0.95;74.77
20027;BME280;10174;42.688;23.344;2023-03-13T05:35:45;95859.63;;;-0.64;74.56
20027;BME280;10174;42.688;23.344;2023-03-13T05:38:11;95858.59;;;-0.63;73.44
20027;BME280;10174;42.688;23.344;2023-03-13T05:40:36;95833.38;;;-0.80;73.03
20027;BME280;10174;42.688;23.344;2023-03-13T05:43:02;95860.25;;;-0.62;72.71
20027;BME280;10174;42.688;23.344;2023-03-13T05:45:27;95852.97;;;-0.60;72.51
20027;BME280;10174;42.688;23.344;2023-03-13T05:47:53;95851.16;;;-0.59;72.07
20027;BME280;10174;42.688;23.344;2023-03-13T05:50:18;95867.81;;;-0.59;71.61
20027;BME280;10174;42.688;23.344;2023-03-13T05:52:44;95876.00;;;-0.54;71.67
20027;BME280;10174;42.688;23.344;2023-03-13T05:55:09;95879.47;;;-0.53;71.33
20027;BME280;10174;42.688;23.344;2023-03-13T05:57:35;95886.31;;;-0.44;71.12
20027;BME280;10174;42.688;23.344;2023-03-13T06:00:00;95867.81;;;-0.59;71.31
20027;BME280;10174;42.688;23.344;2023-03-13T06:02:26;95880.91;;;-0.50;70.91
20027;BME280;10174;42.688;23.344;2023-03-13T06:04:52;95870.84;;;-0.47;70.57
20027;BME280;10174;42.688;23.344;2023-03-13T06:07:17;95846.13;;;-0.69;70.83
20027;BME280;10174;42.688;23.344;2023-03-13T06:09:43;95888.50;;;-0.47;71.43
20027;BME280;10174;42.688;23.344;2023-03-13T06:12:09;95885.16;;;-0.41;71.50
20027;BME280;10174;42.688;23.344;2023-03-13T06:14:35;95855.22;;;-0.57;71.22
20027;BME280;10174;42.688;23.344;2023-03-13T06:17:03;95672.97;;;-1.68;70.67
20027;BME280;10174;42.688;23.344;2023-03-13T06:19:29;95885.50;;;-0.44;70.36
20027;BME280;10174;42.688;23.344;2023-03-13T06:21:55;95865.44;;;-0.54;70.51
20027;BME280;10174;42.688;23.344;2023-03-13T06:24:20;95857.53;;;-0.39;70.38
20027;BME280;10174;42.688;23.344;2023-03-13T06:26:49;95884.22;;;-0.19;70.36
20027;BME280;10174;42.688;23.344;2023-03-13T06:29:15;95757.53;;;-1.01;70.14
20027;BME280;10174;42.688;23.344;2023-03-13T06:31:41;95869.56;;;-0.36;69.49
20027;BME280;10174;42.688;23.344;2023-03-13T06:34:09;95870.84;;;-0.32;69.63
20027;BME280;10174;42.688;23.344;2023-03-13T06:36:35;95855.34;;;-0.20;69.64
20027;BME280;10174;42.688;23.344;2023-03-13T06:39:00;95842.16;;;-0.05;69.43
20027;BME280;10174;42.688;23.344;2023-03-13T06:41:26;95846.88;;;0.14;68.75
20027;BME280;10174;42.688;23.344;2023-03-13T06:43:52;95864.53;;;0.29;67.01
20027;BME280;10174;42.688;23.344;2023-03-13T06:46:19;95874.88;;;0.45;67.10
20027;BME280;10174;42.688;23.344;2023-03-13T06:48:46;95870.34;;;0.39;66.63
20027;BME280;10174;42.688;23.344;2023-03-13T06:51:13;95865.13;;;0.46;66.13
20027;BME280;10174;42.688;23.344;2023-03-13T06:53:39;95867.47;;;0.56;65.69
20027;BME280;10174;42.688;23.344;2023-03-13T06:56:05;95857.38;;;0.44;64.47
20027;BME280;10174;42.688;23.344;2023-03-13T06:58:31;95850.34;;;0.51;65.19
20027;BME280;10174;42.688;23.344;2023-03-13T07:00:56;95868.38;;;0.63;64.35
20027;BME280;10174;42.688;23.344;2023-03-13T07:03:22;95850.50;;;0.65;64.21
20027;BME280;10174;42.688;23.344;2023-03-13T07:05:54;95796.88;;;0.34;64.21
20027;BME280;10174;42.688;23.344;2023-03-13T07:08:19;95870.41;;;0.82;64.91
20027;BME280;10174;42.688;23.344;2023-03-13T07:10:45;95875.22;;;0.94;64.56
20027;BME280;10174;42.688;23.344;2023-03-13T07:13:12;95843.50;;;0.79;64.36
20027;BME280;10174;42.688;23.344;2023-03-13T07:15:38;95868.25;;;1.14;64.28
20027;BME280;10174;42.688;23.344;2023-03-13T07:18:03;95874.81;;;1.18;63.90
20027;BME280;10174;42.688;23.344;2023-03-13T07:20:28;95736.59;;;0.45;63.21
20027;BME280;10174;42.688;23.344;2023-03-13T07:22:54;95789.34;;;0.75;63.49
20027;BME280;10174;42.688;23.344;2023-03-13T07:25:19;95759.69;;;0.58;63.81
20027;BME280;10174;42.688;23.344;2023-03-13T07:27:45;95852.28;;;1.01;63.95
20027;BME280;10174;42.688;23.344;2023-03-13T07:30:10;95833.44;;;0.89;64.00
20027;BME280;10174;42.688;23.344;2023-03-13T07:32:36;95855.78;;;1.08;62.98
20027;BME280;10174;42.688;23.344;2023-03-13T07:35:01;95839.31;;;1.13;63.78
20027;BME280;10174;42.688;23.344;2023-03-13T07:37:29;95834.09;;;1.19;63.43
20027;BME280;10174;42.688;23.344;2023-03-13T07:39:54;95863.19;;;1.41;63.16
20027;BME280;10174;42.688;23.344;2023-03-13T07:42:20;95844.47;;;1.42;62.45
20027;BME280;10174;42.688;23.344;2023-03-13T07:44:45;95842.41;;;1.38;62.34
20027;BME280;10174;42.688;23.344;2023-03-13T07:47:10;95859.63;;;1.55;62.45
20027;BME280;10174;42.688;23.344;2023-03-13T07:49:36;95824.44;;;1.33;62.07
20027;BME280;10174;42.688;23.344;2023-03-13T07:52:06;95872.75;;;1.64;61.77
20027;BME280;10174;42.688;23.344;2023-03-13T07:54:31;95864.59;;;1.65;61.19
20027;BME280;10174;42.688;23.344;2023-03-13T07:56:57;95833.13;;;1.55;61.38
20027;BME280;10174;42.688;23.344;2023-03-13T07:59:22;95850.03;;;1.83;61.76
20027;BME280;10174;42.688;23.344;2023-03-13T08:01:47;95852.38;;;2.06;61.29
20027;BME280;10174;42.688;23.344;2023-03-13T08:04:13;95849.63;;;2.27;61.23
20027;BME280;10174;42.688;23.344;2023-03-13T08:06:38;95839.25;;;2.33;60.90
20027;BME280;10174;42.688;23.344;2023-03-13T08:09:05;95848.63;;;2.28;60.18
20027;BME280;10174;42.688;23.344;2023-03-13T08:11:30;95811.16;;;1.96;59.49
20027;BME280;10174;42.688;23.344;2023-03-13T08:13:56;95849.06;;;2.39;59.29
20027;BME280;10174;42.688;23.344;2023-03-13T08:16:24;95753.03;;;1.88;59.85
20027;BME280;10174;42.688;23.344;2023-03-13T08:18:55;95763.72;;;2.15;59.93
20027;BME280;10174;42.688;23.344;2023-03-13T08:21:26;95839.78;;;2.63;59.30
20027;BME280;10174;42.688;23.344;2023-03-13T08:23:54;95828.72;;;2.46;60.21
20027;BME280;10174;42.688;23.344;2023-03-13T08:26:22;95838.53;;;2.52;59.08
20027;BME280;10174;42.688;23.344;2023-03-13T08:28:52;95788.69;;;2.41;58.71
20027;BME280;10174;42.688;23.344;2023-03-13T08:31:22;95843.06;;;2.85;57.80
20027;BME280;10174;42.688;23.344;2023-03-13T08:33:48;95841.84;;;2.81;57.38
20027;BME280;10174;42.688;23.344;2023-03-13T08:36:23;95798.94;;;2.64;57.26
20027;BME280;10174;42.688;23.344;2023-03-13T08:38:50;95821.88;;;2.98;57.42
20027;BME280;10174;42.688;23.344;2023-03-13T08:41:21;95860.88;;;3.31;56.53
20027;BME280;10174;42.688;23.344;2023-03-13T08:43:47;95821.88;;;3.38;55.77
20027;BME280;10174;42.688;23.344;2023-03-13T08:46:13;95743.84;;;3.13;55.42
20027;BME280;10174;42.688;23.344;2023-03-13T08:48:39;95831.66;;;3.65;54.86
20027;BME280;10174;42.688;23.344;2023-03-13T08:51:07;95842.84;;;4.00;54.19
20027;BME280;10174;42.688;23.344;2023-03-13T08:53:34;95843.72;;;4.85;50.42
20027;BME280;10174;42.688;23.344;2023-03-13T08:55:59;95775.16;;;5.74;48.19
20027;BME280;10174;42.688;23.344;2023-03-13T08:58:25;95817.25;;;7.07;45.19
20027;BME280;10174;42.688;23.344;2023-03-13T09:00:51;95833.47;;;7.36;44.41
20027;BME280;10174;42.688;23.344;2023-03-13T09:03:16;95824.16;;;7.26;44.56
20027;BME280;10174;42.688;23.344;2023-03-13T09:05:42;95825.25;;;8.20;43.05
20027;BME280;10174;42.688;23.344;2023-03-13T09:08:08;95824.88;;;8.40;42.08
20027;BME280;10174;42.688;23.344;2023-03-13T09:10:34;95814.94;;;8.64;41.26
20027;BME280;10174;42.688;23.344;2023-03-13T09:13:00;95830.91;;;9.17;40.19
20027;BME280;10174;42.688;23.344;2023-03-13T09:15:26;95813.47;;;8.45;41.01
20027;BME280;10174;42.688;23.344;2023-03-13T09:17:52;95837.81;;;8.31;40.97
20027;BME280;10174;42.688;23.344;2023-03-13T09:20:17;95752.59;;;7.76;42.01
20027;BME280;10174;42.688;23.344;2023-03-13T09:22:44;95824.03;;;8.92;40.82
20027;BME280;10174;42.688;23.344;2023-03-13T09:25:10;95803.94;;;9.40;39.66
20027;BME280;10174;42.688;23.344;2023-03-13T09:27:35;95812.22;;;10.73;37.68
20027;BME280;10174;42.688;23.344;2023-03-13T09:30:00;95791.81;;;10.72;37.05
20027;BME280;10174;42.688;23.344;2023-03-13T09:32:26;95805.97;;;11.49;35.57
20027;BME280;10174;42.688;23.344;2023-03-13T09:34:51;95809.63;;;11.05;35.74
20027;BME280;10174;42.688;23.344;2023-03-13T09:37:16;95822.69;;;12.26;34.50
20027;BME280;10174;42.688;23.344;2023-03-13T09:39:42;95817.75;;;11.43;35.13
20027;BME280;10174;42.688;23.344;2023-03-13T09:42:17;95825.50;;;11.07;35.54
20027;BME280;10174;42.688;23.344;2023-03-13T09:44:53;95819.78;;;13.12;32.93
20027;BME280;10174;42.688;23.344;2023-03-13T09:50:25;95811.13;;;12.99;32.62
20027;BME280;10174;42.688;23.344;2023-03-13T09:53:00;95801.91;;;11.79;33.85
20027;BME280;10174;42.688;23.344;2023-03-13T09:55:31;95795.00;;;13.41;31.88
20027;BME280;10174;42.688;23.344;2023-03-13T09:58:05;95819.31;;;15.38;29.39
20027;BME280;10174;42.688;23.344;2023-03-13T10:00:42;95804.44;;;14.91;29.74
20027;BME280;10174;42.688;23.344;2023-03-13T10:05:38;95721.78;;;15.48;27.93
20027;BME280;10174;42.688;23.344;2023-03-13T10:08:52;95806.56;;;14.23;30.52
20027;BME280;10174;42.688;23.344;2023-03-13T10:11:05;95800.94;;;14.85;30.59
20027;BME280;10174;42.688;23.344;2023-03-13T10:13:39;95791.78;;;13.80;30.43
20027;BME280;10174;42.688;23.344;2023-03-13T10:16:12;95786.38;;;13.69;31.47
20027;BME280;10174;42.688;23.344;2023-03-13T10:18:44;95781.97;;;14.25;30.61
20027;BME280;10174;42.688;23.344;2023-03-13T10:21:18;95762.34;;;14.74;29.60
20027;BME280;10174;42.688;23.344;2023-03-13T10:24:10;95771.47;;;16.21;27.77
20027;BME280;10174;42.688;23.344;2023-03-13T10:26:38;95744.59;;;17.63;26.22
20027;BME280;10174;42.688;23.344;2023-03-13T10:29:19;95756.56;;;16.91;26.96
20027;BME280;10174;42.688;23.344;2023-03-13T10:31:53;95744.00;;;17.15;26.17
20027;BME280;10174;42.688;23.344;2023-03-13T10:34:20;95749.06;;;16.40;27.26
20027;BME280;10174;42.688;23.344;2023-03-13T10:36:48;95749.81;;;15.63;28.65
20027;BME280;10174;42.688;23.344;2023-03-13T10:39:21;95746.72;;;14.61;29.50
20027;BME280;10174;42.688;23.344;2023-03-13T10:41:50;95737.19;;;14.03;30.49
20027;BME280;10174;42.688;23.344;2023-03-13T10:44:22;95727.28;;;14.49;29.93
20027;BME280;10174;42.688;23.344;2023-03-13T10:46:49;95652.81;;;14.77;29.44
20027;BME280;10174;42.688;23.344;2023-03-13T10:49:17;95713.66;;;14.74;29.94
20027;BME280;10174;42.688;23.344;2023-03-13T10:51:49;95728.97;;;14.34;30.80
20027;BME280;10174;42.688;23.344;2023-03-13T10:54:18;95722.84;;;14.78;30.63
20027;BME280;10174;42.688;23.344;2023-03-13T10:56:46;95687.28;;;16.75;26.88
20027;BME280;10174;42.688;23.344;2023-03-13T10:59:25;95708.13;;;16.61;27.75
20027;BME280;10174;42.688;23.344;2023-03-13T11:01:53;95714.88;;;17.20;26.07
20027;BME280;10174;42.688;23.344;2023-03-13T11:04:31;95703.28;;;14.92;29.29
20027;BME280;10174;42.688;23.344;2023-03-13T11:07:02;95706.97;;;13.86;30.95
20027;BME280;10174;42.688;23.344;2023-03-13T11:09:27;95702.94;;;13.68;31.21
20027;BME280;10174;42.688;23.344;2023-03-13T11:11:57;95694.22;;;14.72;30.56
20027;BME280;10174;42.688;23.344;2023-03-13T11:14:26;95658.09;;;15.56;28.67
20027;BME280;10174;42.688;23.344;2023-03-13T11:17:00;95691.72;;;16.71;27.94
20027;BME280;10174;42.688;23.344;2023-03-13T11:30:07;95674.63;;;16.51;27.40
20027;BME280;10174;42.688;23.344;2023-03-13T11:32:51;95648.31;;;16.09;28.03
20027;BME280;10174;42.688;23.344;2023-03-13T11:38:04;95664.94;;;14.30;30.59
20027;BME280;10174;42.688;23.344;2023-03-13T11:40:35;95613.56;;;13.80;30.81
20027;BME280;10174;42.688;23.344;2023-03-13T11:43:28;95654.56;;;15.26;29.59
20027;BME280;10174;42.688;23.344;2023-03-13T11:46:09;95643.88;;;15.40;29.38
20027;BME280;10174;42.688;23.344;2023-03-13T11:48:55;95645.03;;;15.34;28.94
20027;BME280;10174;42.688;23.344;2023-03-13T11:51:40;95639.09;;;15.32;30.02
20027;BME280;10174;42.688;23.344;2023-03-13T11:57:12;95623.50;;;14.89;29.58
20027;BME280;10174;42.688;23.344;2023-03-13T12:04:53;95618.22;;;14.24;31.04
20027;BME280;10174;42.688;23.344;2023-03-13T12:07:36;95589.56;;;15.02;30.15
20027;BME280;10174;42.688;23.344;2023-03-13T12:10:17;95600.28;;;15.66;29.17
20027;BME280;10174;42.688;23.344;2023-03-13T12:15:38;95579.47;;;16.29;28.39
20027;BME280;10174;42.688;23.344;2023-03-13T12:20:48;95595.44;;;16.68;27.82
20027;BME280;10174;42.688;23.344;2023-03-13T12:23:41;95594.09;;;17.65;26.41
20027;BME280;10174;42.688;23.344;2023-03-13T12:26:14;95592.44;;;16.89;27.90
20027;BME280;10174;42.688;23.344;2023-03-13T12:28:49;95591.84;;;16.73;27.06
20027;BME280;10174;42.688;23.344;2023-03-13T12:31:24;95563.88;;;15.77;28.89
20027;BME280;10174;42.688;23.344;2023-03-13T12:37:37;95576.88;;;15.80;29.32
20027;BME280;10174;42.688;23.344;2023-03-13T12:40:34;95572.66;;;15.93;28.79
20027;BME280;10174;42.688;23.344;2023-03-13T12:46:20;95571.47;;;16.56;28.44
20027;BME280;10174;42.688;23.344;2023-03-13T12:51:50;95573.78;;;16.49;27.31
20027;BME280;10174;42.688;23.344;2023-03-13T12:54:40;95575.16;;;16.09;28.00
20027;BME280;10174;42.688;23.344;2023-03-13T12:57:12;95579.28;;;15.28;29.42
20027;BME280;10174;42.688;23.344;2023-03-13T12:59:43;95572.47;;;13.93;31.54
20027;BME280;10174;42.688;23.344;2023-03-13T13:02:16;95496.75;;;12.57;32.24
20027;BME280;10174;42.688;23.344;2023-03-13T13:04:46;95581.63;;;12.80;33.57
20027;BME280;10174;42.688;23.344;2023-03-13T13:07:25;95581.28;;;12.15;34.86
20027;BME280;10174;42.688;23.344;2023-03-13T13:12:29;95564.88;;;12.06;34.48
20027;BME280;10174;42.688;23.344;2023-03-13T13:14:57;95585.47;;;11.80;35.59
20027;BME280;10174;42.688;23.344;2023-03-13T13:17:55;95576.28;;;11.71;35.79
20027;BME280;10174;42.688;23.344;2023-03-13T13:20:34;95573.47;;;11.40;36.48
20027;BME280;10174;42.688;23.344;2023-03-13T13:25:44;95568.16;;;11.50;36.16
20027;BME280;10174;42.688;23.344;2023-03-13T13:28:21;95567.03;;;11.41;35.48
20027;BME280;10174;42.688;23.344;2023-03-13T13:30:51;95561.41;;;11.48;35.90
20027;BME280;10174;42.688;23.344;2023-03-13T13:35:43;95555.97;;;11.32;36.11
20027;BME280;10174;42.688;23.344;2023-03-13T13:43:39;95539.56;;;11.34;36.35
20027;BME280;10174;42.688;23.344;2023-03-13T13:49:18;95550.38;;;11.49;36.62
20027;BME280;10174;42.688;23.344;2023-03-13T13:57:15;95543.28;;;11.22;35.76
20027;BME280;10174;42.688;23.344;2023-03-13T13:59:46;95539.50;;;11.23;35.74
20027;BME280;10174;42.688;23.344;2023-03-13T14:07:54;95540.06;;;11.26;35.85
20027;BME280;10174;42.688;23.344;2023-03-13T14:10:40;95529.66;;;11.45;35.57
20027;BME280;10174;42.688;23.344;2023-03-13T14:15:49;95534.84;;;11.72;34.77
20027;BME280;10174;42.688;23.344;2023-03-13T14:18:23;95534.88;;;11.77;35.63
20027;BME280;10174;42.688;23.344;2023-03-13T14:20:56;95535.97;;;11.86;34.83
20027;BME280;10174;42.688;23.344;2023-03-13T14:25:53;95428.66;;;11.06;35.00
20027;BME280;10174;42.688;23.344;2023-03-13T14:30:45;95526.44;;;11.48;35.40